createdAt,value
2023-03-28T00:01:51.276Z,100.00
2023-03-28T00:04:22.950Z,100.00
2023-03-28T00:06:52.148Z,100.00
2023-03-28T00:09:22.631Z,100.00
2023-03-28T00:11:50.301Z,100.00
2023-03-28T00:14:17.757Z,100.00
2023-03-28T00:16:48.121Z,100.00
2023-03-28T00:19:18.423Z,100.00
2023-03-28T00:21:48.711Z,100.00
2023-03-28T00:24:21.555Z,100.00
2023-03-28T00:26:54.503Z,100.00
2023-03-28T00:29:23.310Z,100.00
2023-03-28T00:31:52.139Z,100.00
2023-03-28T00:34:19.698Z,100.00
2023-03-28T00:36:47.496Z,100.00
2023-03-28T00:39:15.487Z,100.00
2023-03-28T00:41:44.622Z,100.00
2023-03-28T00:44:57.122Z,100.00
2023-03-28T00:47:28.053Z,100.00
2023-03-28T00:50:03.525Z,100.00
2023-03-28T00:52:40.104Z,100.00
2023-03-28T00:55:15.666Z,100.00
2023-03-28T00:57:46.529Z,100.00
2023-03-28T01:00:17.125Z,100.00
2023-03-28T01:02:51.589Z,100.00
2023-03-28T01:05:23.767Z,100.00
2023-03-28T01:07:56.036Z,100.00
2023-03-28T01:10:24.648Z,100.00
2023-03-28T01:12:55.670Z,100.00
2023-03-28T01:15:23.823Z,100.00
2023-03-28T01:18:02.877Z,100.00
2023-03-28T01:20:32.742Z,100.00
2023-03-28T01:23:32.696Z,100.00
2023-03-28T01:26:39.509Z,100.00
2023-03-28T01:29:36.492Z,100.00
2023-03-28T01:32:54.643Z,100.00
2023-03-28T01:35:50.793Z,100.00
2023-03-28T01:38:34.228Z,100.00
2023-03-28T01:41:29.424Z,100.00
2023-03-28T01:44:46.112Z,100.00
2023-03-28T01:47:51.686Z,100.00
2023-03-28T01:50:26.668Z,100.00
2023-03-28T01:53:41.666Z,100.00
2023-03-28T01:56:24.244Z,100.00
2023-03-28T01:59:18.179Z,100.00
2023-03-28T02:02:19.923Z,100.00
2023-03-28T02:04:50.359Z,100.00
2023-03-28T02:07:22.012Z,100.00
2023-03-28T02:10:26.472Z,100.00
2023-03-28T02:13:00.131Z,100.00
2023-03-28T02:16:00.925Z,100.00
2023-03-28T02:18:45.915Z,100.00
2023-03-28T02:21:32.121Z,100.00
2023-03-28T02:24:23.308Z,100.00
2023-03-28T02:27:08.830Z,100.00
2023-03-28T02:29:56.758Z,100.00
2023-03-28T02:32:38.006Z,100.00
2023-03-28T02:35:07.365Z,100.00
2023-03-28T02:37:49.930Z,100.00
2023-03-28T02:40:46.723Z,100.00
2023-03-28T02:43:20.342Z,100.00
2023-03-28T02:46:13.959Z,100.00
2023-03-28T02:49:00.523Z,100.00
2023-03-28T02:51:57.100Z,100.00
2023-03-28T02:54:42.034Z,100.00
2023-03-28T02:57:46.611Z,100.00
2023-03-28T03:00:18.779Z,100.00
2023-03-28T03:02:49.557Z,100.00
2023-03-28T03:05:20.412Z,100.00
2023-03-28T03:07:50.042Z,100.00
2023-03-28T03:10:18.380Z,100.00
2023-03-28T03:12:47.838Z,100.00
2023-03-28T03:15:17.263Z,100.00
2023-03-28T03:17:47.726Z,100.00
2023-03-28T03:20:16.980Z,100.00
2023-03-28T03:22:44.662Z,100.00
2023-03-28T03:25:14.536Z,100.00
2023-03-28T03:27:54.394Z,100.00
2023-03-28T03:30:22.061Z,100.00
2023-03-28T03:33:10.433Z,100.00
2023-03-28T03:35:42.388Z,100.00
2023-03-28T03:38:09.979Z,100.00
2023-03-28T03:40:37.431Z,100.00
2023-03-28T03:43:05.109Z,100.00
2023-03-28T03:45:35.139Z,100.00
2023-03-28T03:48:03.480Z,100.00
2023-03-28T03:50:30.960Z,100.00
2023-03-28T03:52:59.139Z,100.00
2023-03-28T03:55:34.489Z,100.00
2023-03-28T03:58:03.255Z,100.00
2023-03-28T04:00:32.004Z,100.00
2023-03-28T04:02:59.740Z,100.00
2023-03-28T04:05:28.587Z,100.00
2023-03-28T04:08:02.081Z,100.00
2023-03-28T04:10:42.508Z,100.00
2023-03-28T04:13:12.935Z,100.00
2023-03-28T04:15:42.295Z,100.00
2023-03-28T04:18:29.895Z,100.00
2023-03-28T04:21:01.825Z,100.00
2023-03-28T04:23:43.874Z,100.00
2023-03-28T04:26:50.328Z,100.00
2023-03-28T04:29:25.408Z,100.00
2023-03-28T04:32:13.054Z,100.00
2023-03-28T04:35:03.869Z,100.00
2023-03-28T04:37:31.807Z,100.00
2023-03-28T04:40:16.271Z,100.00
2023-03-28T04:43:07.159Z,100.00
2023-03-28T04:45:38.782Z,100.00
2023-03-28T04:48:15.072Z,100.00
2023-03-28T04:50:43.371Z,100.00
2023-03-28T04:53:12.449Z,100.00
2023-03-28T04:55:50.829Z,100.00
2023-03-28T04:58:24.002Z,100.00
2023-03-28T05:00:54.098Z,100.00
2023-03-28T05:03:43.171Z,100.00
2023-03-28T05:06:11.817Z,100.00
2023-03-28T05:08:39.332Z,100.00
2023-03-28T05:11:07.081Z,100.00
2023-03-28T05:13:37.759Z,100.00
2023-03-28T05:16:12.250Z,100.00
2023-03-28T05:19:04.572Z,100.00
2023-03-28T05:21:58.236Z,100.00
2023-03-28T05:24:26.036Z,100.00
2023-03-28T05:26:54.685Z,100.00
2023-03-28T05:29:24.301Z,100.00
2023-03-28T05:31:53.094Z,100.00
2023-03-28T05:34:30.497Z,100.00
2023-03-28T05:36:58.499Z,100.00
2023-03-28T05:39:29.272Z,100.00
2023-03-28T05:42:03.638Z,100.00
2023-03-28T05:44:31.270Z,100.00
2023-03-28T05:47:19.196Z,100.00
2023-03-28T05:49:46.787Z,100.00
2023-03-28T05:52:14.518Z,100.00
2023-03-28T05:54:42.115Z,100.00
2023-03-28T05:57:19.687Z,100.00
2023-03-28T05:59:47.218Z,100.00
2023-03-28T06:02:20.377Z,100.00
2023-03-28T06:04:48.842Z,100.00
2023-03-28T06:07:17.595Z,100.00
2023-03-28T06:09:47.644Z,100.00
2023-03-28T06:12:16.235Z,100.00
2023-03-28T06:14:49.850Z,100.00
2023-03-28T06:17:25.230Z,100.00
2023-03-28T06:19:56.913Z,100.00
2023-03-28T06:22:24.838Z,100.00
2023-03-28T06:24:57.906Z,100.00
2023-03-28T06:27:28.177Z,100.00
2023-03-28T06:29:56.136Z,100.00
2023-03-28T06:32:23.657Z,100.00
2023-03-28T06:34:51.255Z,100.00
2023-03-28T06:37:19.566Z,100.00
2023-03-28T06:39:55.587Z,100.00
2023-03-28T06:42:23.103Z,100.00
2023-03-28T06:44:58.271Z,100.00
2023-03-28T06:47:25.969Z,100.00
2023-03-28T06:49:53.476Z,100.00
2023-03-28T06:52:29.693Z,100.00
2023-03-28T06:54:59.206Z,100.00
2023-03-28T06:57:26.878Z,100.00
2023-03-28T07:00:07.494Z,100.00
2023-03-28T07:02:54.997Z,100.00
2023-03-28T07:05:22.946Z,100.00
2023-03-28T07:07:50.713Z,100.00
2023-03-28T07:10:18.394Z,100.00
2023-03-28T07:12:46.010Z,100.00
2023-03-28T07:15:14.093Z,100.00
2023-03-28T07:17:41.571Z,100.00
2023-03-28T07:20:09.889Z,100.00
2023-03-28T07:22:37.342Z,100.00
2023-03-28T07:25:05.558Z,100.00
2023-03-28T07:27:33.102Z,100.00
2023-03-28T07:30:00.591Z,100.00
2023-03-28T07:32:38.681Z,100.00
2023-03-28T07:35:15.131Z,100.00
2023-03-28T07:37:48.521Z,100.00
2023-03-28T07:40:32.569Z,100.00
2023-03-28T07:43:00.561Z,100.00
2023-03-28T07:45:28.045Z,100.00
2023-03-28T07:47:55.697Z,100.00
2023-03-28T07:50:24.888Z,100.00
2023-03-28T07:52:57.808Z,100.00
2023-03-28T07:55:28.045Z,100.00
2023-03-28T07:57:55.520Z,100.00
2023-03-28T08:00:35.061Z,100.00
2023-03-28T08:03:23.780Z,100.00
2023-03-28T08:05:52.143Z,100.00
2023-03-28T08:08:21.984Z,100.00
2023-03-28T08:11:02.717Z,100.00
2023-03-28T08:13:30.343Z,100.00
2023-03-28T08:16:04.094Z,100.00
2023-03-28T08:18:31.728Z,100.00
2023-03-28T08:21:03.150Z,100.00
2023-03-28T08:23:33.543Z,100.00
2023-03-28T08:26:28.267Z,100.00
2023-03-28T08:29:01.097Z,100.00
2023-03-28T08:31:30.023Z,100.00
2023-03-28T08:34:04.100Z,100.00
2023-03-28T08:36:37.073Z,100.00
2023-03-28T08:41:46.277Z,100.00
2023-03-28T08:44:40.636Z,100.00
2023-03-28T08:47:27.203Z,100.00
2023-03-28T08:50:10.253Z,100.00
2023-03-28T08:52:40.798Z,100.00
2023-03-28T08:55:24.273Z,100.00
2023-03-28T08:57:54.959Z,100.00
2023-03-28T09:00:26.493Z,100.00
2023-03-28T09:02:55.220Z,100.00
2023-03-28T09:05:35.863Z,100.00
2023-03-28T09:08:46.066Z,94.09
2023-03-28T09:11:34.841Z,100.00
2023-03-28T09:14:24.533Z,90.05
2023-03-28T09:17:16.837Z,77.48
2023-03-28T09:20:11.537Z,81.26
2023-03-28T09:23:30.216Z,90.08
2023-03-28T09:26:19.181Z,83.16
2023-03-28T09:29:03.064Z,92.25
2023-03-28T09:31:41.111Z,95.36
2023-03-28T09:34:20.789Z,76.95
2023-03-28T09:39:40.496Z,82.56
2023-03-28T09:42:19.470Z,74.94
2023-03-28T09:45:21.542Z,91.35
2023-03-28T09:47:55.201Z,85.21
2023-03-28T09:50:27.340Z,91.78
2023-03-28T09:52:59.971Z,82.65
2023-03-28T09:55:31.144Z,79.50
2023-03-28T09:58:08.559Z,78.68
2023-03-28T10:00:55.478Z,70.92
2023-03-28T10:03:54.454Z,69.83
2023-03-28T10:06:39.899Z,70.95
2023-03-28T10:09:13.560Z,72.64
2023-03-28T10:11:56.589Z,72.78
2023-03-28T10:14:46.979Z,71.39
2023-03-28T10:17:37.969Z,71.47
2023-03-28T10:20:24.051Z,73.12
2023-03-28T10:22:57.067Z,73.97
2023-03-28T10:25:35.144Z,61.79
2023-03-28T10:28:05.469Z,67.26
2023-03-28T10:30:37.014Z,74.17
2023-03-28T10:33:10.169Z,78.34
2023-03-28T10:35:57.612Z,71.92
2023-03-28T10:38:31.640Z,66.66
2023-03-28T10:41:26.149Z,64.00
2023-03-28T10:44:18.813Z,62.75
2023-03-28T10:47:16.269Z,61.66
2023-03-28T10:49:55.713Z,61.58
2023-03-28T10:52:43.843Z,57.20
2023-03-28T10:55:27.515Z,55.64
2023-03-28T10:58:37.873Z,58.46
2023-03-28T11:01:20.679Z,67.62
2023-03-28T11:03:55.360Z,61.79
2023-03-28T11:06:30.963Z,60.09
2023-03-28T11:09:09.500Z,56.37
2023-03-28T11:12:28.325Z,60.31
2023-03-28T11:15:00.033Z,60.87
2023-03-28T11:18:02.506Z,59.09
2023-03-28T11:21:02.358Z,57.76
2023-03-28T11:23:34.966Z,56.14
2023-03-28T11:26:34.856Z,59.74
2023-03-28T11:29:42.600Z,59.58
2023-03-28T11:33:09.764Z,60.06
2023-03-28T11:35:37.420Z,61.94
2023-03-28T11:38:26.982Z,57.29
2023-03-28T11:41:04.530Z,58.43
2023-03-28T11:44:16.978Z,56.38
2023-03-28T11:46:59.153Z,52.19
2023-03-28T11:49:42.992Z,53.28
2023-03-28T11:52:42.669Z,56.37
2023-03-28T11:55:26.541Z,53.84
2023-03-28T11:58:23.714Z,52.00
2023-03-28T12:01:11.402Z,54.50
2023-03-28T12:04:03.963Z,52.86
2023-03-28T12:06:59.513Z,54.02
2023-03-28T12:10:06.829Z,55.24
2023-03-28T12:12:50.034Z,52.44
2023-03-28T12:15:21.947Z,50.50
2023-03-28T12:18:02.772Z,53.38
2023-03-28T12:20:42.486Z,53.15
2023-03-28T12:23:32.100Z,57.19
2023-03-28T12:26:55.885Z,54.48
2023-03-28T12:29:37.408Z,51.44
2023-03-28T12:32:31.712Z,50.83
2023-03-28T12:35:18.725Z,51.31
2023-03-28T12:38:12.395Z,51.18
2023-03-28T12:40:49.043Z,52.38
2023-03-28T12:43:21.726Z,53.57
2023-03-28T12:45:56.605Z,53.87
2023-03-28T12:48:31.180Z,56.55
2023-03-28T12:51:06.137Z,55.25
2023-03-28T12:53:34.815Z,52.19
2023-03-28T12:56:03.724Z,51.14
2023-03-28T12:58:36.295Z,51.27
2023-03-28T13:01:33.481Z,51.14
2023-03-28T13:04:03.861Z,51.99
2023-03-28T13:07:09.804Z,52.78
2023-03-28T13:10:41.937Z,54.68
2023-03-28T13:13:41.557Z,52.25
2023-03-28T13:16:46.689Z,53.54
2023-03-28T13:19:18.410Z,53.37
2023-03-28T13:22:24.458Z,55.78
2023-03-28T13:24:52.128Z,55.80
2023-03-28T13:27:33.815Z,57.62
2023-03-28T13:30:24.625Z,59.11
2023-03-28T13:33:01.038Z,58.13
2023-03-28T13:36:00.636Z,57.46
2023-03-28T13:38:28.259Z,57.93
2023-03-28T13:41:03.072Z,61.46
2023-03-28T13:43:33.892Z,62.59
2023-03-28T13:46:25.680Z,63.92
2023-03-28T13:49:13.193Z,63.92
2023-03-28T13:51:50.175Z,61.53
2023-03-28T13:54:18.204Z,64.46
2023-03-28T13:56:48.082Z,64.96
2023-03-28T13:59:23.229Z,61.46
2023-03-28T14:01:59.985Z,64.62
2023-03-28T14:04:35.164Z,63.92
2023-03-28T14:07:02.954Z,62.00
2023-03-28T14:09:34.657Z,59.32
2023-03-28T14:12:14.008Z,55.30
2023-03-28T14:14:50.436Z,62.53
2023-03-28T14:17:32.712Z,65.97
2023-03-28T14:20:08.199Z,56.60
2023-03-28T14:22:49.382Z,54.68
2023-03-28T14:25:27.656Z,57.32
2023-03-28T14:27:57.080Z,58.70
2023-03-28T14:30:30.167Z,61.59
2023-03-28T14:33:14.546Z,57.27
2023-03-28T14:35:43.386Z,55.92
2023-03-28T14:38:26.739Z,57.95
2023-03-28T14:40:55.114Z,55.75
2023-03-28T14:43:31.887Z,53.77
2023-03-28T14:46:04.429Z,51.99
2023-03-28T14:48:32.591Z,53.54
2023-03-28T14:51:04.162Z,53.76
2023-03-28T14:53:42.218Z,56.57
2023-03-28T14:56:14.049Z,56.04
2023-03-28T14:58:44.337Z,56.29
2023-03-28T15:01:22.992Z,57.01
2023-03-28T15:04:08.350Z,53.54
2023-03-28T15:06:38.801Z,56.49
2023-03-28T15:09:19.382Z,56.52
2023-03-28T15:11:47.060Z,54.74
2023-03-28T15:14:22.491Z,55.53
2023-03-28T15:16:50.354Z,57.33
2023-03-28T15:19:22.515Z,54.26
2023-03-28T15:21:55.262Z,54.47
2023-03-28T15:24:27.946Z,56.60
2023-03-28T15:26:59.541Z,56.94
2023-03-28T15:29:30.070Z,58.01
2023-03-28T15:32:05.306Z,60.91
2023-03-28T15:34:43.588Z,61.00
2023-03-28T15:37:19.223Z,67.87
2023-03-28T15:39:50.791Z,71.63
2023-03-28T15:42:21.260Z,69.04
2023-03-28T15:44:57.821Z,71.60
2023-03-28T15:47:30.385Z,77.89
2023-03-28T15:50:05.000Z,84.23
2023-03-28T15:52:34.503Z,87.77
2023-03-28T15:55:03.385Z,85.31
2023-03-28T15:57:31.658Z,88.83
2023-03-28T16:00:01.135Z,94.24
2023-03-28T16:02:32.287Z,97.98
2023-03-28T16:05:23.051Z,100.00
2023-03-28T16:07:50.906Z,100.00
2023-03-28T16:10:24.507Z,100.00
2023-03-28T16:13:21.277Z,100.00
2023-03-28T16:16:05.949Z,100.00
2023-03-28T16:18:52.122Z,100.00
2023-03-28T16:21:19.978Z,100.00
2023-03-28T16:23:47.639Z,100.00
2023-03-28T16:26:15.679Z,100.00
2023-03-28T16:28:43.217Z,100.00
2023-03-28T16:31:14.926Z,100.00
2023-03-28T16:33:42.510Z,100.00
2023-03-28T16:36:11.996Z,100.00
2023-03-28T16:38:39.670Z,100.00
2023-03-28T16:41:07.508Z,100.00
2023-03-28T16:43:35.254Z,100.00
2023-03-28T16:46:03.188Z,100.00
2023-03-28T16:48:32.490Z,100.00
2023-03-28T16:51:05.395Z,100.00
2023-03-28T16:53:37.463Z,100.00
2023-03-28T16:56:12.204Z,100.00
2023-03-28T16:58:39.855Z,100.00
2023-03-28T17:01:10.806Z,100.00
2023-03-28T17:03:38.663Z,100.00
2023-03-28T17:06:09.637Z,100.00
2023-03-28T17:08:38.060Z,100.00
2023-03-28T17:11:08.987Z,100.00
2023-03-28T17:13:37.726Z,100.00
2023-03-28T17:16:07.903Z,100.00
2023-03-28T17:18:35.987Z,100.00
2023-03-28T17:21:12.524Z,100.00
2023-03-28T17:23:42.066Z,100.00
2023-03-28T17:26:12.304Z,100.00
2023-03-28T17:28:42.279Z,100.00
2023-03-28T17:31:13.345Z,100.00
2023-03-28T17:33:41.155Z,100.00
2023-03-28T17:36:24.982Z,100.00
2023-03-28T17:38:54.990Z,100.00
2023-03-28T17:41:23.814Z,100.00
2023-03-28T17:43:52.784Z,100.00
2023-03-28T17:46:21.511Z,100.00
2023-03-28T17:48:49.673Z,100.00
2023-03-28T17:51:17.713Z,100.00
2023-03-28T17:53:47.142Z,100.00
2023-03-28T17:56:16.404Z,100.00
2023-03-28T17:58:44.677Z,100.00
2023-03-28T18:01:15.866Z,100.00
2023-03-28T18:03:44.462Z,100.00
2023-03-28T18:06:33.719Z,100.00
2023-03-28T18:09:01.268Z,100.00
2023-03-28T18:11:28.796Z,100.00
2023-03-28T18:13:57.966Z,100.00
2023-03-28T18:16:26.807Z,100.00
2023-03-28T18:18:54.764Z,100.00
2023-03-28T18:21:22.283Z,100.00
2023-03-28T18:23:49.874Z,100.00
2023-03-28T18:26:17.507Z,100.00
2023-03-28T18:28:45.299Z,100.00
2023-03-28T18:31:17.868Z,100.00
2023-03-28T18:33:45.574Z,100.00
2023-03-28T18:36:14.158Z,100.00
2023-03-28T18:38:43.863Z,100.00
2023-03-28T18:41:12.803Z,100.00
2023-03-28T18:43:42.452Z,100.00
2023-03-28T18:46:15.485Z,100.00
2023-03-28T18:48:44.876Z,100.00
2023-03-28T18:51:12.596Z,100.00
2023-03-28T18:53:40.089Z,100.00
2023-03-28T18:56:08.945Z,100.00
2023-03-28T18:58:37.484Z,100.00
2023-03-28T19:01:06.448Z,100.00
2023-03-28T19:03:47.117Z,100.00
2023-03-28T19:06:15.979Z,100.00
2023-03-28T19:08:47.681Z,100.00
2023-03-28T19:11:17.136Z,100.00
2023-03-28T19:13:44.666Z,100.00
2023-03-28T19:16:14.568Z,100.00
2023-03-28T19:18:43.961Z,100.00
2023-03-28T19:21:12.410Z,100.00
2023-03-28T19:23:40.494Z,100.00
2023-03-28T19:26:09.861Z,100.00
2023-03-28T19:28:39.234Z,100.00
2023-03-28T19:31:09.711Z,100.00
2023-03-28T19:33:38.458Z,100.00
2023-03-28T19:36:07.081Z,100.00
2023-03-28T19:38:36.459Z,100.00
2023-03-28T19:41:15.177Z,100.00
2023-03-28T19:43:43.735Z,100.00
2023-03-28T19:46:17.864Z,100.00
2023-03-28T19:48:45.491Z,100.00
2023-03-28T19:51:14.245Z,100.00
2023-03-28T19:53:42.674Z,100.00
2023-03-28T19:56:12.143Z,100.00
2023-03-28T19:58:39.966Z,100.00
2023-03-28T20:01:07.580Z,100.00
2023-03-28T20:03:35.505Z,100.00
2023-03-28T20:06:06.321Z,100.00
2023-03-28T20:08:34.649Z,100.00
2023-03-28T20:11:02.730Z,100.00
2023-03-28T20:13:30.584Z,100.00
2023-03-28T20:16:03.234Z,100.00
2023-03-28T20:18:32.654Z,100.00
2023-03-28T20:21:02.414Z,100.00
2023-03-28T20:23:32.698Z,100.00
2023-03-28T20:26:01.798Z,100.00
2023-03-28T20:28:32.622Z,100.00
2023-03-28T20:31:00.558Z,100.00
2023-03-28T20:33:28.277Z,100.00
2023-03-28T20:35:59.190Z,100.00
2023-03-28T20:38:27.589Z,100.00
2023-03-28T20:40:54.998Z,100.00
2023-03-28T20:43:26.746Z,100.00
2023-03-28T20:46:01.732Z,100.00
2023-03-28T20:48:36.823Z,100.00
2023-03-28T20:51:13.967Z,100.00
2023-03-28T20:53:50.579Z,100.00
2023-03-28T20:56:20.061Z,100.00
2023-03-28T20:58:48.259Z,100.00
2023-03-28T21:01:17.573Z,100.00
2023-03-28T21:03:54.857Z,100.00
2023-03-28T21:06:35.487Z,100.00
2023-03-28T21:09:06.887Z,100.00
2023-03-28T21:11:37.189Z,100.00
2023-03-28T21:14:06.415Z,100.00
2023-03-28T21:16:34.695Z,100.00
2023-03-28T21:19:02.852Z,100.00
2023-03-28T21:21:33.296Z,100.00
2023-03-28T21:24:02.265Z,100.00
2023-03-28T21:26:30.374Z,100.00
2023-03-28T21:28:57.950Z,100.00
2023-03-28T21:31:28.673Z,100.00
2023-03-28T21:33:57.694Z,100.00
2023-03-28T21:36:27.269Z,100.00
2023-03-28T21:38:55.852Z,100.00
2023-03-28T21:41:24.218Z,100.00
2023-03-28T21:43:53.862Z,100.00
2023-03-28T21:46:22.516Z,100.00
2023-03-28T21:48:50.116Z,100.00
2023-03-28T21:51:18.064Z,100.00
2023-03-28T21:53:46.328Z,100.00
2023-03-28T21:56:16.445Z,100.00
2023-03-28T21:58:44.296Z,100.00
2023-03-28T22:01:14.204Z,100.00
2023-03-28T22:03:42.180Z,100.00
2023-03-28T22:06:09.853Z,100.00
2023-03-28T22:08:38.019Z,100.00
2023-03-28T22:11:15.357Z,100.00
2023-03-28T22:13:45.042Z,100.00
2023-03-28T22:16:14.349Z,100.00
2023-03-28T22:18:49.738Z,100.00
2023-03-28T22:21:17.796Z,100.00
2023-03-28T22:23:47.556Z,100.00
2023-03-28T22:26:15.996Z,100.00
2023-03-28T22:28:44.305Z,100.00
2023-03-28T22:31:12.533Z,100.00
2023-03-28T22:33:40.109Z,100.00
2023-03-28T22:36:08.200Z,100.00
2023-03-28T22:38:36.808Z,100.00
2023-03-28T22:41:04.797Z,100.00
2023-03-28T22:43:33.845Z,100.00
2023-03-28T22:46:01.562Z,100.00
2023-03-28T22:48:31.975Z,100.00
2023-03-28T22:51:01.651Z,100.00
2023-03-28T22:53:29.463Z,100.00
2023-03-28T22:55:57.774Z,100.00
2023-03-28T22:58:25.766Z,100.00
2023-03-28T23:00:54.966Z,100.00
2023-03-28T23:03:22.578Z,100.00
2023-03-28T23:05:51.807Z,100.00
2023-03-28T23:08:19.419Z,100.00
2023-03-28T23:14:31.244Z,100.00
2023-03-28T23:17:02.278Z,100.00
2023-03-28T23:19:32.114Z,100.00
2023-03-28T23:22:00.153Z,100.00
2023-03-28T23:24:27.811Z,100.00
2023-03-28T23:26:56.624Z,100.00
2023-03-28T23:29:24.472Z,100.00
2023-03-28T23:31:51.969Z,100.00
2023-03-28T23:34:19.511Z,100.00
2023-03-28T23:36:47.317Z,100.00
2023-03-28T23:39:14.785Z,100.00
2023-03-28T23:41:42.286Z,100.00
2023-03-28T23:44:09.758Z,100.00
2023-03-28T23:46:37.321Z,100.00
2023-03-28T23:49:04.747Z,100.00
2023-03-28T23:51:32.489Z,100.00
2023-03-28T23:53:59.953Z,100.00
2023-03-28T23:56:27.950Z,100.00
2023-03-28T23:58:55.339Z,100.00
